地図

経路データ

SID SEASON NUMBER BASIN SUBBASIN NAME ISO_TIME NATURE LAT LON WMO_WIND WMO_PRES WMO_AGENCY TRACK_TYPE DIST2LAND LANDFALL IFLAG USA_AGENCY USA_ATCF_ID USA_LAT USA_LON USA_RECORD USA_STATUS USA_WIND USA_PRES USA_SSHS USA_R34_NE USA_R34_SE USA_R34_SW USA_R34_NW USA_R50_NE USA_R50_SE USA_R50_SW USA_R50_NW USA_R64_NE USA_R64_SE USA_R64_SW USA_R64_NW USA_POCI USA_ROCI USA_RMW USA_EYE TOKYO_LAT TOKYO_LON TOKYO_GRADE TOKYO_WIND TOKYO_PRES TOKYO_R50_DIR TOKYO_R50_LONG TOKYO_R50_SHORT TOKYO_R30_DIR TOKYO_R30_LONG TOKYO_R30_SHORT TOKYO_LAND CMA_LAT CMA_LON CMA_CAT CMA_WIND CMA_PRES HKO_LAT HKO_LON HKO_CAT HKO_WIND HKO_PRES NEWDELHI_LAT NEWDELHI_LON NEWDELHI_GRADE NEWDELHI_WIND NEWDELHI_PRES NEWDELHI_CI NEWDELHI_DP NEWDELHI_POCI REUNION_LAT REUNION_LON REUNION_TYPE REUNION_WIND REUNION_PRES REUNION_TNUM REUNION_CI REUNION_RMW REUNION_R34_NE REUNION_R34_SE REUNION_R34_SW REUNION_R34_NW REUNION_R50_NE REUNION_R50_SE REUNION_R50_SW REUNION_R50_NW REUNION_R64_NE REUNION_R64_SE REUNION_R64_SW REUNION_R64_NW BOM_LAT BOM_LON BOM_TYPE BOM_WIND BOM_PRES BOM_TNUM BOM_CI BOM_RMW BOM_R34_NE BOM_R34_SE BOM_R34_SW BOM_R34_NW BOM_R50_NE BOM_R50_SE BOM_R50_SW BOM_R50_NW BOM_R64_NE BOM_R64_SE BOM_R64_SW BOM_R64_NW BOM_ROCI BOM_POCI BOM_EYE BOM_POS_METHOD BOM_PRES_METHOD NADI_LAT NADI_LON NADI_CAT NADI_WIND NADI_PRES WELLINGTON_LAT WELLINGTON_LON WELLINGTON_WIND WELLINGTON_PRES DS824_LAT DS824_LON DS824_STAGE DS824_WIND DS824_PRES TD9636_LAT TD9636_LON TD9636_STAGE TD9636_WIND TD9636_PRES TD9635_LAT TD9635_LON TD9635_WIND TD9635_PRES TD9635_ROCI NEUMANN_LAT NEUMANN_LON NEUMANN_CLASS NEUMANN_WIND NEUMANN_PRES MLC_LAT MLC_LON MLC_CLASS MLC_WIND MLC_PRES USA_GUST BOM_GUST BOM_GUST_PER REUNION_GUST REUNION_GUST_PER USA_SEAHGT USA_SEARAD_NE USA_SEARAD_SE USA_SEARAD_SW USA_SEARAD_NW STORM_SPEED STORM_DIR
1984329N27281 1984 114 NA NA NOT_NAMED 1984-11-23 12:00:00 TS 26.5000 -79.5000 20 hurdat_atl main 59 59 O_____________ hurdat_atl AL191984 26.5000 -79.5000 TD 20 -1 7 56
1984329N27281 1984 114 NA NA NOT_NAMED 1984-11-23 15:00:00 TS 26.6849 -79.1928 main 80 80 P_____________ AL191984 26.6849 -79.1928 TD 20 -1 7 64
1984329N27281 1984 114 NA NA NOT_NAMED 1984-11-23 18:00:00 TS 26.8000 -78.8000 20 hurdat_atl main 118 118 O_____________ hurdat_atl AL191984 26.8000 -78.8000 TD 20 -1 8 82
1984329N27281 1984 114 NA NA NOT_NAMED 1984-11-23 21:00:00 TS 26.7952 -78.2724 main 168 168 P_____________ AL191984 26.7952 -78.2724 TD 22 -1 10 96
1984329N27281 1984 114 NA NA NOT_NAMED 1984-11-24 00:00:00 TS 26.7000 -77.7000 25 hurdat_atl main 181 174 O_____________ hurdat_atl AL191984 26.7000 -77.7000 TD 25 -1 10 103
1984329N27281 1984 114 NA NA NOT_NAMED 1984-11-24 03:00:00 TS 26.5723 -77.1850 main 185 180 P_____________ AL191984 26.5723 -77.1850 TD 25 -1 9 109
1984329N27281 1984 114 NA NA NOT_NAMED 1984-11-24 06:00:00 TS 26.4000 -76.7000 25 hurdat_atl main 194 193 O_____________ hurdat_atl AL191984 26.4000 -76.7000 TD 25 -1 9 116
1984329N27281 1984 114 NA NA NOT_NAMED 1984-11-24 09:00:00 TS 26.1914 -76.3101 main 209 209 P_____________ AL191984 26.1914 -76.3101 TD 25 -1 9 116
1984329N27281 1984 114 NA NA NOT_NAMED 1984-11-24 12:00:00 TS 26.0000 -75.8000 25 hurdat_atl main 242 242 O_____________ hurdat_atl AL191984 26.0000 -75.8000 TD 25 -1 13 105
1984329N27281 1984 114 NA NA NOT_NAMED 1984-11-24 15:00:00 TS 25.8706 -74.9598 main 311 311 P_____________ AL191984 25.8706 -74.9598 TD 27 -1 16 97
1984329N27281 1984 114 NA NA NOT_NAMED 1984-11-24 18:00:00 TS 25.8000 -74.0000 30 hurdat_atl main 399 399 O_____________ hurdat_atl AL191984 25.8000 -74.0000 TD 30 -1 16 93
1984329N27281 1984 114 NA NA NOT_NAMED 1984-11-24 21:00:00 TS 25.7766 -73.1577 main 475 475 P_____________ AL191984 25.7766 -73.1577 TD 30 -1 15 90
1984329N27281 1984 114 NA NA NOT_NAMED 1984-11-25 00:00:00 TS 25.8000 -72.3000 30 hurdat_atl main 519 519 O_____________ hurdat_atl AL191984 25.8000 -72.3000 TD 30 -1 16 88
1984329N27281 1984 114 NA NA NOT_NAMED 1984-11-25 03:00:00 TS 25.8423 -71.3576 main 539 539 P_____________ AL191984 25.8423 -71.3576 TD 30 -1 17 87
1984329N27281 1984 114 NA NA NOT_NAMED 1984-11-25 06:00:00 TS 25.9000 -70.4000 30 hurdat_atl main 588 588 O_____________ hurdat_atl AL191984 25.9000 -70.4000 TD 30 -1 17 86
1984329N27281 1984 114 NA NA NOT_NAMED 1984-11-25 09:00:00 TS 25.9568 -69.4926 main 644 644 P_____________ AL191984 25.9568 -69.4926 TD 30 -1 16 86
1984329N27281 1984 114 NA NA NOT_NAMED 1984-11-25 12:00:00 TS 26.0000 -68.6000 30 hurdat_atl main 698 698 O_____________ hurdat_atl AL191984 26.0000 -68.6000 TD 30 -1 16 88
1984329N27281 1984 114 NA NA NOT_NAMED 1984-11-25 15:00:00 TS 26.0067 -67.7148 main 753 753 P_____________ AL191984 26.0067 -67.7148 TD 30 -1 16 90
1984329N27281 1984 114 NA NA NOT_NAMED 1984-11-25 18:00:00 TS 26.0000 -66.8000 30 hurdat_atl main 786 786 O_____________ hurdat_atl AL191984 26.0000 -66.8000 TD 30 -1 17 90
1984329N27281 1984 114 NA NA NOT_NAMED 1984-11-25 21:00:00 TS 25.9996 -65.8150 main 830 830 P_____________ AL191984 25.9996 -65.8150 TD 30 -1 18 90
1984329N27281 1984 114 NA NA NOT_NAMED 1984-11-26 00:00:00 TS 26.0000 -64.8000 30 hurdat_atl main 853 853 O_____________ hurdat_atl AL191984 26.0000 -64.8000 TD 30 -1 18 90
1984329N27281 1984 114 NA NA NOT_NAMED 1984-11-26 03:00:00 TS 25.9921 -63.7848 main 869 869 P_____________ AL191984 25.9921 -63.7848 TD 30 -1 18 90
1984329N27281 1984 114 NA NA NOT_NAMED 1984-11-26 06:00:00 TS 26.0000 -62.8000 30 hurdat_atl main 897 897 O_____________ hurdat_atl AL191984 26.0000 -62.8000 TD 30 -1 17 88
1984329N27281 1984 114 NA NA NOT_NAMED 1984-11-26 09:00:00 TS 26.0489 -61.9003 main 930 930 P_____________ AL191984 26.0489 -61.9003 TD 30 -1 16 86
1984329N27281 1984 114 NA NA NOT_NAMED 1984-11-26 12:00:00 TS 26.1000 -61.0000 30 hurdat_atl main 982 982 O_____________ hurdat_atl AL191984 26.1000 -61.0000 TD 30 -1 17 89
1984329N27281 1984 114 NA NA NOT_NAMED 1984-11-26 15:00:00 TS 26.0778 -59.9767 main 1035 1035 P_____________ AL191984 26.0778 -59.9767 TD 30 -1 18 90
1984329N27281 1984 114 NA NA NOT_NAMED 1984-11-26 18:00:00 TS 26.1000 -59.0000 30 hurdat_atl main 1095 1095 O_____________ hurdat_atl AL191984 26.1000 -59.0000 TD 30 -1 16 84
1984329N27281 1984 114 NA NA NOT_NAMED 1984-11-26 21:00:00 TS 26.2532 -58.2571 main 1158 1158 P_____________ AL191984 26.2532 -58.2571 TD 30 -1 14 73
1984329N27281 1984 114 NA NA NOT_NAMED 1984-11-27 00:00:00 TS 26.5000 -57.5000 30 hurdat_atl main 1228 1228 O_____________ hurdat_atl AL191984 26.5000 -57.5000 TD 30 -1 17 73
1984329N27281 1984 114 NA NA NOT_NAMED 1984-11-27 03:00:00 TS 26.7637 -56.4426 main 1330 1330 P_____________ AL191984 26.7637 -56.4426 TD 30 -1 20 72
1984329N27281 1984 114 NA NA NOT_NAMED 1984-11-27 06:00:00 TS 27.1000 -55.4000 30 hurdat_atl main 1426 1426 O_____________ hurdat_atl AL191984 27.1000 -55.4000 TD 30 -1 18 65
1984329N27281 1984 114 NA NA NOT_NAMED 1984-11-27 09:00:00 TS 27.5265 -54.6247 main 1515 1515 P_____________ AL191984 27.5265 -54.6247 TD 30 -1 15 54
1984329N27281 1984 114 NA NA NOT_NAMED 1984-11-27 12:00:00 TS 28.0000 -54.0000 30 hurdat_atl main 1596 1596 O_____________ hurdat_atl AL191984 28.0000 -54.0000 TD 30 -1 14 48
1984329N27281 1984 114 NA NA NOT_NAMED 1984-11-27 15:00:00 TS 28.4336 -53.4856 main 1662 1662 P_____________ AL191984 28.4336 -53.4856 TD 30 -1 13 47
1984329N27281 1984 114 NA NA NOT_NAMED 1984-11-27 18:00:00 TS 28.9000 -52.9000 30 hurdat_atl main 1743 1743 O_____________ hurdat_atl AL191984 28.9000 -52.9000 TD 30 -1 17 53
1984329N27281 1984 114 NA NA NOT_NAMED 1984-11-27 21:00:00 TS 29.4360 -51.9807 main 1846 1846 P_____________ AL191984 29.4360 -51.9807 TD 30 -1 20 56
1984329N27281 1984 114 NA NA NOT_NAMED 1984-11-28 00:00:00 TS 30.0000 -51.0000 30 hurdat_atl main 1857 1809 O_____________ hurdat_atl AL191984 30.0000 -51.0000 TD 30 -1 19 54
1984329N27281 1984 114 NA NA NOT_NAMED 1984-11-28 03:00:00 TS 30.5547 -50.1906 main 1799 1754 P_____________ AL191984 30.5547 -50.1906 TD 27 -1 17 50
1984329N27281 1984 114 NA NA NOT_NAMED 1984-11-28 06:00:00 TS 31.1000 -49.5000 25 hurdat_atl main 1754 O_____________ hurdat_atl AL191984 31.1000 -49.5000 TD 25 -1 16 47

IBTrACS Databaseについて

本データベースは、米国NOAAが公開する1842年以降の世界の熱帯低気圧のベストトラックデータアーカイブInternational Best Track Archive for Climate Stewardship (IBTrACS)を、ウェブで閲覧しやすい形式に変換したものです。

最終更新日:2021-12-03